Harvel, Illinois
Current Conditions -  °F | °C
As of 11:15 PM on Saturday 20 Dec 2014 (Local Time) from K3LF Reporting Station
Overcast Overcast  
Wind Chill: 31°   Ceiling: 2900
Heat Index: 36°   Visibility: 10mi
Dew Point: 30°   Wind: 6mph
Humidity: 80%   Direction: 140°SE
Pressure: 30.25"   Gusts: NA
Location:  39.36°N, 89.53°W
Report Text: K3LF 210515Z AUTO 14005KT 10SM OVC029 02/M01 A3025 RMK AO2 T00201011
Loading
Personal Weather Stations






























Interactive Weather Map New forecast layout! Learn more

10-Day Weather Forecast

Advertisements
Track Severe Weather on mobile